sensor_id;sensor_type;location;lat;lon;timestamp;P1;durP1;ratioP1;P2;durP2;ratioP2
18360;SDS011;9308;48.550;9.108;2023-05-29T00:00:11;8.00;;;5.43;;
18360;SDS011;9308;48.550;9.108;2023-05-29T00:02:38;5.83;;;5.13;;
18360;SDS011;9308;48.550;9.108;2023-05-29T00:05:05;6.00;;;5.00;;
18360;SDS011;9308;48.550;9.108;2023-05-29T00:07:31;6.00;;;4.97;;
18360;SDS011;9308;48.550;9.108;2023-05-29T00:10:00;8.70;;;5.40;;
18360;SDS011;9308;48.550;9.108;2023-05-29T00:12:25;5.90;;;5.07;;
18360;SDS011;9308;48.550;9.108;2023-05-29T00:14:51;5.13;;;4.37;;
18360;SDS011;9308;48.550;9.108;2023-05-29T00:17:16;6.70;;;5.47;;
18360;SDS011;9308;48.550;9.108;2023-05-29T00:19:42;8.23;;;5.10;;
18360;SDS011;9308;48.550;9.108;2023-05-29T00:22:08;8.87;;;5.07;;
18360;SDS011;9308;48.550;9.108;2023-05-29T00:24:34;8.00;;;5.87;;
18360;SDS011;9308;48.550;9.108;2023-05-29T00:27:00;6.90;;;5.23;;
18360;SDS011;9308;48.550;9.108;2023-05-29T00:29:26;5.30;;;4.80;;
18360;SDS011;9308;48.550;9.108;2023-05-29T00:31:52;8.30;;;5.53;;
18360;SDS011;9308;48.550;9.108;2023-05-29T00:34:21;7.43;;;5.67;;
18360;SDS011;9308;48.550;9.108;2023-05-29T00:36:48;5.73;;;5.10;;
18360;SDS011;9308;48.550;9.108;2023-05-29T00:39:13;5.90;;;4.90;;
18360;SDS011;9308;48.550;9.108;2023-05-29T00:41:39;6.50;;;4.93;;
18360;SDS011;9308;48.550;9.108;2023-05-29T00:44:04;6.70;;;5.50;;
18360;SDS011;9308;48.550;9.108;2023-05-29T00:46:31;5.60;;;5.07;;
18360;SDS011;9308;48.550;9.108;2023-05-29T00:48:57;6.97;;;4.73;;
18360;SDS011;9308;48.550;9.108;2023-05-29T00:51:24;7.60;;;5.00;;
18360;SDS011;9308;48.550;9.108;2023-05-29T00:53:51;6.17;;;4.60;;
18360;SDS011;9308;48.550;9.108;2023-05-29T00:56:18;6.37;;;5.07;;
18360;SDS011;9308;48.550;9.108;2023-05-29T00:58:46;5.90;;;5.10;;
18360;SDS011;9308;48.550;9.108;2023-05-29T01:01:14;5.40;;;4.83;;
18360;SDS011;9308;48.550;9.108;2023-05-29T01:03:41;7.57;;;4.83;;
18360;SDS011;9308;48.550;9.108;2023-05-29T01:06:07;7.00;;;4.77;;
18360;SDS011;9308;48.550;9.108;2023-05-29T01:08:33;6.37;;;4.77;;
18360;SDS011;9308;48.550;9.108;2023-05-29T01:11:08;6.30;;;5.13;;
18360;SDS011;9308;48.550;9.108;2023-05-29T01:13:40;5.53;;;4.57;;
18360;SDS011;9308;48.550;9.108;2023-05-29T01:16:14;6.37;;;5.23;;
18360;SDS011;9308;48.550;9.108;2023-05-29T01:22:02;6.47;;;4.80;;
18360;SDS011;9308;48.550;9.108;2023-05-29T01:25:04;7.23;;;5.73;;
18360;SDS011;9308;48.550;9.108;2023-05-29T01:27:54;7.10;;;5.47;;
18360;SDS011;9308;48.550;9.108;2023-05-29T01:30:21;6.70;;;5.43;;
18360;SDS011;9308;48.550;9.108;2023-05-29T01:32:49;6.10;;;4.37;;
18360;SDS011;9308;48.550;9.108;2023-05-29T01:35:15;6.10;;;4.73;;
18360;SDS011;9308;48.550;9.108;2023-05-29T01:37:41;5.57;;;5.07;;
18360;SDS011;9308;48.550;9.108;2023-05-29T01:40:06;6.07;;;4.73;;
18360;SDS011;9308;48.550;9.108;2023-05-29T01:42:32;6.30;;;5.33;;
18360;SDS011;9308;48.550;9.108;2023-05-29T01:44:58;6.10;;;5.00;;
18360;SDS011;9308;48.550;9.108;2023-05-29T01:47:25;6.03;;;4.90;;
18360;SDS011;9308;48.550;9.108;2023-05-29T01:49:51;5.97;;;5.37;;
18360;SDS011;9308;48.550;9.108;2023-05-29T01:52:17;9.20;;;5.40;;
18360;SDS011;9308;48.550;9.108;2023-05-29T01:54:43;6.83;;;4.43;;
18360;SDS011;9308;48.550;9.108;2023-05-29T01:57:10;5.83;;;5.20;;
18360;SDS011;9308;48.550;9.108;2023-05-29T01:59:35;6.27;;;5.20;;
18360;SDS011;9308;48.550;9.108;2023-05-29T02:02:08;6.67;;;5.67;;
18360;SDS011;9308;48.550;9.108;2023-05-29T02:04:34;6.10;;;5.20;;
18360;SDS011;9308;48.550;9.108;2023-05-29T02:07:00;6.67;;;5.57;;
18360;SDS011;9308;48.550;9.108;2023-05-29T02:09:25;8.73;;;5.23;;
18360;SDS011;9308;48.550;9.108;2023-05-29T02:11:51;6.30;;;5.37;;
18360;SDS011;9308;48.550;9.108;2023-05-29T02:14:16;6.30;;;5.17;;
18360;SDS011;9308;48.550;9.108;2023-05-29T02:16:42;9.83;;;5.17;;
18360;SDS011;9308;48.550;9.108;2023-05-29T02:19:09;6.50;;;5.70;;
18360;SDS011;9308;48.550;9.108;2023-05-29T02:21:37;7.10;;;5.27;;
18360;SDS011;9308;48.550;9.108;2023-05-29T02:24:03;5.93;;;5.20;;
18360;SDS011;9308;48.550;9.108;2023-05-29T02:26:29;5.93;;;5.33;;
18360;SDS011;9308;48.550;9.108;2023-05-29T02:28:55;6.67;;;5.50;;
18360;SDS011;9308;48.550;9.108;2023-05-29T02:31:20;6.23;;;5.60;;
18360;SDS011;9308;48.550;9.108;2023-05-29T02:33:45;5.70;;;5.13;;
18360;SDS011;9308;48.550;9.108;2023-05-29T02:36:11;8.77;;;5.50;;
18360;SDS011;9308;48.550;9.108;2023-05-29T02:38:37;8.63;;;5.97;;
18360;SDS011;9308;48.550;9.108;2023-05-29T02:41:03;7.70;;;6.10;;
18360;SDS011;9308;48.550;9.108;2023-05-29T02:43:28;5.93;;;5.33;;
18360;SDS011;9308;48.550;9.108;2023-05-29T02:45:53;5.80;;;5.27;;
18360;SDS011;9308;48.550;9.108;2023-05-29T02:48:19;6.00;;;5.40;;
18360;SDS011;9308;48.550;9.108;2023-05-29T02:50:45;6.97;;;6.00;;
18360;SDS011;9308;48.550;9.108;2023-05-29T02:53:10;5.43;;;4.93;;
18360;SDS011;9308;48.550;9.108;2023-05-29T02:55:36;7.30;;;6.00;;
18360;SDS011;9308;48.550;9.108;2023-05-29T02:58:01;6.20;;;5.37;;
18360;SDS011;9308;48.550;9.108;2023-05-29T03:00:27;5.63;;;5.00;;
18360;SDS011;9308;48.550;9.108;2023-05-29T03:02:54;7.23;;;6.50;;
18360;SDS011;9308;48.550;9.108;2023-05-29T03:05:20;6.73;;;5.77;;
18360;SDS011;9308;48.550;9.108;2023-05-29T03:07:45;6.87;;;5.70;;
18360;SDS011;9308;48.550;9.108;2023-05-29T03:10:11;6.17;;;5.63;;
18360;SDS011;9308;48.550;9.108;2023-05-29T03:12:36;6.23;;;5.60;;
18360;SDS011;9308;48.550;9.108;2023-05-29T03:15:02;7.90;;;6.03;;
18360;SDS011;9308;48.550;9.108;2023-05-29T03:17:28;6.90;;;6.20;;
18360;SDS011;9308;48.550;9.108;2023-05-29T03:19:54;6.30;;;5.73;;
18360;SDS011;9308;48.550;9.108;2023-05-29T03:22:19;6.20;;;5.60;;
18360;SDS011;9308;48.550;9.108;2023-05-29T03:24:45;6.57;;;5.77;;
18360;SDS011;9308;48.550;9.108;2023-05-29T03:27:10;6.83;;;5.60;;
18360;SDS011;9308;48.550;9.108;2023-05-29T03:29:36;7.23;;;6.10;;
18360;SDS011;9308;48.550;9.108;2023-05-29T03:32:01;7.23;;;5.80;;
18360;SDS011;9308;48.550;9.108;2023-05-29T03:34:27;6.27;;;5.40;;
18360;SDS011;9308;48.550;9.108;2023-05-29T03:36:53;6.30;;;5.43;;
18360;SDS011;9308;48.550;9.108;2023-05-29T03:39:18;7.03;;;5.87;;
18360;SDS011;9308;48.550;9.108;2023-05-29T03:41:44;6.70;;;5.50;;
18360;SDS011;9308;48.550;9.108;2023-05-29T03:44:09;7.87;;;5.60;;
18360;SDS011;9308;48.550;9.108;2023-05-29T03:46:35;5.83;;;5.27;;
18360;SDS011;9308;48.550;9.108;2023-05-29T03:49:00;6.60;;;5.47;;
18360;SDS011;9308;48.550;9.108;2023-05-29T03:51:26;7.03;;;4.90;;
18360;SDS011;9308;48.550;9.108;2023-05-29T03:53:51;6.27;;;5.67;;
18360;SDS011;9308;48.550;9.108;2023-05-29T03:56:17;9.27;;;5.57;;
18360;SDS011;9308;48.550;9.108;2023-05-29T03:58:42;6.73;;;6.03;;
18360;SDS011;9308;48.550;9.108;2023-05-29T04:01:08;7.87;;;6.20;;
18360;SDS011;9308;48.550;9.108;2023-05-29T04:03:34;7.03;;;5.70;;
18360;SDS011;9308;48.550;9.108;2023-05-29T04:06:00;6.63;;;6.03;;
18360;SDS011;9308;48.550;9.108;2023-05-29T04:08:26;8.90;;;6.03;;
18360;SDS011;9308;48.550;9.108;2023-05-29T04:10:51;8.93;;;5.90;;
18360;SDS011;9308;48.550;9.108;2023-05-29T04:13:20;9.17;;;8.27;;
18360;SDS011;9308;48.550;9.108;2023-05-29T04:15:46;8.53;;;7.73;;
18360;SDS011;9308;48.550;9.108;2023-05-29T04:18:11;8.07;;;7.10;;
18360;SDS011;9308;48.550;9.108;2023-05-29T04:20:37;9.03;;;7.17;;
18360;SDS011;9308;48.550;9.108;2023-05-29T04:23:02;8.03;;;7.17;;
18360;SDS011;9308;48.550;9.108;2023-05-29T04:25:28;10.00;;;9.07;;
18360;SDS011;9308;48.550;9.108;2023-05-29T04:27:53;9.67;;;8.60;;
18360;SDS011;9308;48.550;9.108;2023-05-29T04:30:19;9.80;;;8.80;;
18360;SDS011;9308;48.550;9.108;2023-05-29T04:32:45;10.13;;;8.80;;
18360;SDS011;9308;48.550;9.108;2023-05-29T04:35:11;7.17;;;6.10;;
18360;SDS011;9308;48.550;9.108;2023-05-29T04:37:38;8.10;;;5.80;;
18360;SDS011;9308;48.550;9.108;2023-05-29T04:40:05;6.67;;;5.17;;
18360;SDS011;9308;48.550;9.108;2023-05-29T04:42:38;7.03;;;5.80;;
18360;SDS011;9308;48.550;9.108;2023-05-29T04:45:05;6.73;;;5.77;;
18360;SDS011;9308;48.550;9.108;2023-05-29T04:47:31;7.10;;;6.20;;
18360;SDS011;9308;48.550;9.108;2023-05-29T04:50:01;8.07;;;5.70;;
18360;SDS011;9308;48.550;9.108;2023-05-29T04:52:27;8.37;;;6.60;;
18360;SDS011;9308;48.550;9.108;2023-05-29T04:54:54;6.70;;;5.83;;
18360;SDS011;9308;48.550;9.108;2023-05-29T04:57:20;6.27;;;5.63;;
18360;SDS011;9308;48.550;9.108;2023-05-29T04:59:45;6.50;;;5.30;;
18360;SDS011;9308;48.550;9.108;2023-05-29T05:02:10;8.77;;;6.07;;
18360;SDS011;9308;48.550;9.108;2023-05-29T05:04:36;6.20;;;5.43;;
18360;SDS011;9308;48.550;9.108;2023-05-29T05:07:02;6.80;;;5.40;;
18360;SDS011;9308;48.550;9.108;2023-05-29T05:09:28;6.90;;;6.20;;
18360;SDS011;9308;48.550;9.108;2023-05-29T05:11:54;7.50;;;6.37;;
18360;SDS011;9308;48.550;9.108;2023-05-29T05:14:21;9.47;;;6.00;;
18360;SDS011;9308;48.550;9.108;2023-05-29T05:16:47;7.37;;;6.40;;
18360;SDS011;9308;48.550;9.108;2023-05-29T05:19:13;6.70;;;6.07;;
18360;SDS011;9308;48.550;9.108;2023-05-29T05:21:38;7.13;;;6.47;;
18360;SDS011;9308;48.550;9.108;2023-05-29T05:24:04;6.53;;;5.93;;
18360;SDS011;9308;48.550;9.108;2023-05-29T05:26:29;5.83;;;5.23;;
18360;SDS011;9308;48.550;9.108;2023-05-29T05:28:55;7.77;;;6.30;;
18360;SDS011;9308;48.550;9.108;2023-05-29T05:31:21;8.70;;;6.33;;
18360;SDS011;9308;48.550;9.108;2023-05-29T05:33:47;6.07;;;5.47;;
18360;SDS011;9308;48.550;9.108;2023-05-29T05:36:12;8.40;;;6.50;;
18360;SDS011;9308;48.550;9.108;2023-05-29T05:38:38;6.73;;;5.70;;
18360;SDS011;9308;48.550;9.108;2023-05-29T05:41:03;5.73;;;5.23;;
18360;SDS011;9308;48.550;9.108;2023-05-29T05:43:29;9.20;;;5.97;;
18360;SDS011;9308;48.550;9.108;2023-05-29T05:45:55;6.80;;;6.20;;
18360;SDS011;9308;48.550;9.108;2023-05-29T05:48:20;6.93;;;5.93;;
18360;SDS011;9308;48.550;9.108;2023-05-29T05:50:46;9.40;;;7.23;;
18360;SDS011;9308;48.550;9.108;2023-05-29T05:53:11;7.80;;;7.00;;
18360;SDS011;9308;48.550;9.108;2023-05-29T05:55:36;7.70;;;6.90;;
18360;SDS011;9308;48.550;9.108;2023-05-29T05:58:02;9.80;;;7.17;;
18360;SDS011;9308;48.550;9.108;2023-05-29T06:00:27;7.77;;;6.97;;
18360;SDS011;9308;48.550;9.108;2023-05-29T06:02:53;7.70;;;7.07;;
18360;SDS011;9308;48.550;9.108;2023-05-29T06:05:18;10.33;;;6.83;;
18360;SDS011;9308;48.550;9.108;2023-05-29T06:07:44;8.20;;;7.40;;
18360;SDS011;9308;48.550;9.108;2023-05-29T06:10:10;8.00;;;7.20;;
18360;SDS011;9308;48.550;9.108;2023-05-29T06:12:35;9.60;;;6.70;;
18360;SDS011;9308;48.550;9.108;2023-05-29T06:15:01;6.97;;;6.10;;
18360;SDS011;9308;48.550;9.108;2023-05-29T06:17:27;8.43;;;7.00;;
18360;SDS011;9308;48.550;9.108;2023-05-29T06:19:53;8.20;;;6.37;;
18360;SDS011;9308;48.550;9.108;2023-05-29T06:22:19;7.70;;;6.20;;
18360;SDS011;9308;48.550;9.108;2023-05-29T06:24:45;8.30;;;6.57;;
18360;SDS011;9308;48.550;9.108;2023-05-29T06:27:10;7.73;;;6.93;;
18360;SDS011;9308;48.550;9.108;2023-05-29T06:29:36;8.17;;;7.37;;
18360;SDS011;9308;48.550;9.108;2023-05-29T06:32:01;8.30;;;7.10;;
18360;SDS011;9308;48.550;9.108;2023-05-29T06:34:27;8.57;;;6.43;;
18360;SDS011;9308;48.550;9.108;2023-05-29T06:39:13;9.40;;;7.47;;
18360;SDS011;9308;48.550;9.108;2023-05-29T06:41:38;8.70;;;7.00;;
18360;SDS011;9308;48.550;9.108;2023-05-29T06:44:04;7.37;;;6.43;;
18360;SDS011;9308;48.550;9.108;2023-05-29T06:46:29;7.93;;;7.13;;
18360;SDS011;9308;48.550;9.108;2023-05-29T06:48:55;9.57;;;7.47;;
18360;SDS011;9308;48.550;9.108;2023-05-29T06:51:21;8.20;;;6.43;;
18360;SDS011;9308;48.550;9.108;2023-05-29T06:53:47;12.80;;;7.27;;
18360;SDS011;9308;48.550;9.108;2023-05-29T06:56:12;7.50;;;6.70;;
18360;SDS011;9308;48.550;9.108;2023-05-29T06:58:37;8.70;;;6.30;;
18360;SDS011;9308;48.550;9.108;2023-05-29T07:01:03;8.60;;;6.80;;
18360;SDS011;9308;48.550;9.108;2023-05-29T07:03:28;6.80;;;6.13;;
18360;SDS011;9308;48.550;9.108;2023-05-29T07:05:54;8.63;;;6.40;;
18360;SDS011;9308;48.550;9.108;2023-05-29T07:08:20;8.23;;;6.40;;
18360;SDS011;9308;48.550;9.108;2023-05-29T07:10:45;8.20;;;6.20;;
18360;SDS011;9308;48.550;9.108;2023-05-29T07:13:14;6.90;;;6.20;;
18360;SDS011;9308;48.550;9.108;2023-05-29T07:15:41;7.83;;;6.50;;
18360;SDS011;9308;48.550;9.108;2023-05-29T07:18:07;9.40;;;6.10;;
18360;SDS011;9308;48.550;9.108;2023-05-29T07:20:32;6.90;;;6.20;;
18360;SDS011;9308;48.550;9.108;2023-05-29T07:22:58;6.07;;;5.30;;
18360;SDS011;9308;48.550;9.108;2023-05-29T07:25:23;7.30;;;6.60;;
18360;SDS011;9308;48.550;9.108;2023-05-29T07:27:49;7.70;;;5.87;;
18360;SDS011;9308;48.550;9.108;2023-05-29T07:30:14;9.20;;;5.70;;
18360;SDS011;9308;48.550;9.108;2023-05-29T07:32:40;5.87;;;5.37;;
18360;SDS011;9308;48.550;9.108;2023-05-29T07:35:06;7.10;;;6.40;;
18360;SDS011;9308;48.550;9.108;2023-05-29T07:37:32;6.83;;;5.80;;
18360;SDS011;9308;48.550;9.108;2023-05-29T07:39:57;8.37;;;6.53;;
18360;SDS011;9308;48.550;9.108;2023-05-29T07:42:22;5.97;;;5.37;;
18360;SDS011;9308;48.550;9.108;2023-05-29T07:44:48;5.80;;;5.00;;
18360;SDS011;9308;48.550;9.108;2023-05-29T07:47:14;7.47;;;6.57;;
18360;SDS011;9308;48.550;9.108;2023-05-29T07:49:40;8.37;;;5.80;;
18360;SDS011;9308;48.550;9.108;2023-05-29T07:52:05;6.77;;;6.20;;
18360;SDS011;9308;48.550;9.108;2023-05-29T07:54:31;6.70;;;5.83;;
18360;SDS011;9308;48.550;9.108;2023-05-29T07:57:00;7.10;;;5.70;;
18360;SDS011;9308;48.550;9.108;2023-05-29T07:59:27;6.37;;;5.73;;
18360;SDS011;9308;48.550;9.108;2023-05-29T08:01:54;6.23;;;5.63;;
18360;SDS011;9308;48.550;9.108;2023-05-29T08:04:23;7.80;;;6.30;;
18360;SDS011;9308;48.550;9.108;2023-05-29T08:06:50;6.50;;;5.73;;
18360;SDS011;9308;48.550;9.108;2023-05-29T08:09:15;8.20;;;6.40;;
18360;SDS011;9308;48.550;9.108;2023-05-29T08:11:42;6.97;;;6.27;;
18360;SDS011;9308;48.550;9.108;2023-05-29T08:14:10;7.03;;;6.23;;
18360;SDS011;9308;48.550;9.108;2023-05-29T08:16:36;10.73;;;7.07;;
18360;SDS011;9308;48.550;9.108;2023-05-29T08:19:02;6.60;;;6.00;;
18360;SDS011;9308;48.550;9.108;2023-05-29T08:21:28;8.43;;;5.70;;
18360;SDS011;9308;48.550;9.108;2023-05-29T08:23:54;8.20;;;5.60;;
18360;SDS011;9308;48.550;9.108;2023-05-29T08:26:20;6.17;;;5.57;;
18360;SDS011;9308;48.550;9.108;2023-05-29T08:28:46;11.53;;;6.83;;
18360;SDS011;9308;48.550;9.108;2023-05-29T08:31:11;7.97;;;5.60;;
18360;SDS011;9308;48.550;9.108;2023-05-29T08:33:37;6.70;;;6.00;;
18360;SDS011;9308;48.550;9.108;2023-05-29T08:36:02;7.37;;;6.67;;
18360;SDS011;9308;48.550;9.108;2023-05-29T08:38:28;8.27;;;6.40;;
18360;SDS011;9308;48.550;9.108;2023-05-29T08:40:55;8.63;;;6.07;;
18360;SDS011;9308;48.550;9.108;2023-05-29T08:43:23;7.03;;;5.70;;
18360;SDS011;9308;48.550;9.108;2023-05-29T08:45:52;9.70;;;6.40;;
18360;SDS011;9308;48.550;9.108;2023-05-29T08:48:19;7.30;;;6.50;;
18360;SDS011;9308;48.550;9.108;2023-05-29T08:50:50;6.87;;;5.20;;
18360;SDS011;9308;48.550;9.108;2023-05-29T08:53:18;6.83;;;6.13;;
18360;SDS011;9308;48.550;9.108;2023-05-29T08:55:44;6.43;;;5.83;;
18360;SDS011;9308;48.550;9.108;2023-05-29T08:58:12;7.50;;;6.47;;
18360;SDS011;9308;48.550;9.108;2023-05-29T09:00:39;7.80;;;5.93;;
18360;SDS011;9308;48.550;9.108;2023-05-29T09:03:06;7.57;;;6.13;;
18360;SDS011;9308;48.550;9.108;2023-05-29T09:05:32;6.60;;;5.50;;
18360;SDS011;9308;48.550;9.108;2023-05-29T09:07:57;8.00;;;6.50;;
18360;SDS011;9308;48.550;9.108;2023-05-29T09:10:24;7.07;;;6.37;;
18360;SDS011;9308;48.550;9.108;2023-05-29T09:12:51;7.07;;;5.67;;
18360;SDS011;9308;48.550;9.108;2023-05-29T09:15:17;8.00;;;6.20;;
18360;SDS011;9308;48.550;9.108;2023-05-29T09:17:44;6.77;;;6.13;;
18360;SDS011;9308;48.550;9.108;2023-05-29T09:20:14;9.23;;;6.27;;
18360;SDS011;9308;48.550;9.108;2023-05-29T09:22:42;6.90;;;6.23;;
18360;SDS011;9308;48.550;9.108;2023-05-29T09:25:17;7.00;;;5.70;;
18360;SDS011;9308;48.550;9.108;2023-05-29T09:27:46;7.10;;;6.23;;
18360;SDS011;9308;48.550;9.108;2023-05-29T09:30:11;7.03;;;6.23;;
18360;SDS011;9308;48.550;9.108;2023-05-29T09:32:56;7.33;;;6.27;;
18360;SDS011;9308;48.550;9.108;2023-05-29T09:35:21;8.03;;;5.90;;
18360;SDS011;9308;48.550;9.108;2023-05-29T09:37:47;6.63;;;5.77;;
18360;SDS011;9308;48.550;9.108;2023-05-29T09:40:12;6.60;;;5.90;;
18360;SDS011;9308;48.550;9.108;2023-05-29T09:42:38;7.63;;;5.60;;
18360;SDS011;9308;48.550;9.108;2023-05-29T09:45:04;6.03;;;5.40;;
18360;SDS011;9308;48.550;9.108;2023-05-29T09:47:32;6.57;;;5.97;;
18360;SDS011;9308;48.550;9.108;2023-05-29T09:49:58;6.40;;;5.53;;
18360;SDS011;9308;48.550;9.108;2023-05-29T09:52:26;6.63;;;5.90;;
18360;SDS011;9308;48.550;9.108;2023-05-29T09:54:55;8.40;;;7.03;;
18360;SDS011;9308;48.550;9.108;2023-05-29T09:57:22;6.77;;;5.70;;
18360;SDS011;9308;48.550;9.108;2023-05-29T09:59:48;6.37;;;5.77;;
18360;SDS011;9308;48.550;9.108;2023-05-29T10:02:16;6.70;;;6.03;;
18360;SDS011;9308;48.550;9.108;2023-05-29T10:04:42;6.80;;;5.93;;
18360;SDS011;9308;48.550;9.108;2023-05-29T10:07:22;7.30;;;6.20;;
18360;SDS011;9308;48.550;9.108;2023-05-29T10:09:53;7.30;;;6.03;;
18360;SDS011;9308;48.550;9.108;2023-05-29T10:12:25;6.57;;;5.53;;
18360;SDS011;9308;48.550;9.108;2023-05-29T10:14:53;7.13;;;4.87;;
18360;SDS011;9308;48.550;9.108;2023-05-29T10:17:25;5.67;;;4.93;;
18360;SDS011;9308;48.550;9.108;2023-05-29T10:19:53;6.70;;;5.20;;
18360;SDS011;9308;48.550;9.108;2023-05-29T10:22:24;7.87;;;5.43;;
18360;SDS011;9308;48.550;9.108;2023-05-29T10:24:51;6.73;;;5.40;;
18360;SDS011;9308;48.550;9.108;2023-05-29T10:27:18;9.80;;;5.50;;
18360;SDS011;9308;48.550;9.108;2023-05-29T10:35:17;5.40;;;4.90;;
18360;SDS011;9308;48.550;9.108;2023-05-29T10:37:57;4.73;;;4.40;;
18360;SDS011;9308;48.550;9.108;2023-05-29T10:40:28;6.30;;;4.63;;
18360;SDS011;9308;48.550;9.108;2023-05-29T10:42:53;6.40;;;5.37;;
18360;SDS011;9308;48.550;9.108;2023-05-29T10:47:54;6.10;;;5.23;;
18360;SDS011;9308;48.550;9.108;2023-05-29T10:53:08;6.07;;;4.87;;
18360;SDS011;9308;48.550;9.108;2023-05-29T10:55:38;5.07;;;4.67;;
18360;SDS011;9308;48.550;9.108;2023-05-29T10:58:04;6.20;;;4.90;;
18360;SDS011;9308;48.550;9.108;2023-05-29T11:00:30;5.63;;;5.03;;
18360;SDS011;9308;48.550;9.108;2023-05-29T11:02:56;8.70;;;4.60;;
18360;SDS011;9308;48.550;9.108;2023-05-29T11:05:22;7.90;;;5.10;;
18360;SDS011;9308;48.550;9.108;2023-05-29T11:07:58;5.07;;;4.53;;
18360;SDS011;9308;48.550;9.108;2023-05-29T11:13:23;7.50;;;5.23;;
18360;SDS011;9308;48.550;9.108;2023-05-29T11:16:11;5.23;;;4.67;;
18360;SDS011;9308;48.550;9.108;2023-05-29T11:18:56;7.77;;;5.10;;
18360;SDS011;9308;48.550;9.108;2023-05-29T11:23:50;5.73;;;4.90;;
18360;SDS011;9308;48.550;9.108;2023-05-29T11:26:21;5.63;;;5.13;;
18360;SDS011;9308;48.550;9.108;2023-05-29T11:28:48;5.37;;;4.30;;
18360;SDS011;9308;48.550;9.108;2023-05-29T11:31:13;6.27;;;5.23;;
18360;SDS011;9308;48.550;9.108;2023-05-29T11:33:41;4.77;;;4.27;;
18360;SDS011;9308;48.550;9.108;2023-05-29T11:36:12;4.70;;;3.83;;
18360;SDS011;9308;48.550;9.108;2023-05-29T11:38:39;4.73;;;4.33;;
18360;SDS011;9308;48.550;9.108;2023-05-29T11:41:05;5.20;;;4.70;;
18360;SDS011;9308;48.550;9.108;2023-05-29T11:43:30;5.83;;;4.33;;
18360;SDS011;9308;48.550;9.108;2023-05-29T11:45:56;6.23;;;5.00;;
18360;SDS011;9308;48.550;9.108;2023-05-29T11:48:22;5.30;;;4.80;;
18360;SDS011;9308;48.550;9.108;2023-05-29T11:50:48;5.33;;;4.60;;
18360;SDS011;9308;48.550;9.108;2023-05-29T11:53:14;5.23;;;4.73;;
18360;SDS011;9308;48.550;9.108;2023-05-29T11:55:39;7.90;;;5.40;;
18360;SDS011;9308;48.550;9.108;2023-05-29T11:58:05;6.30;;;4.43;;
18360;SDS011;9308;48.550;9.108;2023-05-29T12:00:34;4.97;;;4.47;;
18360;SDS011;9308;48.550;9.108;2023-05-29T12:03:01;5.27;;;4.77;;
18360;SDS011;9308;48.550;9.108;2023-05-29T12:05:29;4.57;;;4.17;;
18360;SDS011;9308;48.550;9.108;2023-05-29T12:07:56;5.63;;;5.13;;
18360;SDS011;9308;48.550;9.108;2023-05-29T12:10:22;4.90;;;4.50;;
18360;SDS011;9308;48.550;9.108;2023-05-29T12:12:50;6.07;;;4.93;;
18360;SDS011;9308;48.550;9.108;2023-05-29T12:15:17;5.23;;;4.83;;
18360;SDS011;9308;48.550;9.108;2023-05-29T12:17:44;4.93;;;4.43;;
18360;SDS011;9308;48.550;9.108;2023-05-29T12:20:11;5.40;;;4.70;;
18360;SDS011;9308;48.550;9.108;2023-05-29T12:22:39;4.90;;;4.40;;
18360;SDS011;9308;48.550;9.108;2023-05-29T12:27:32;5.47;;;4.53;;
18360;SDS011;9308;48.550;9.108;2023-05-29T12:30:02;4.80;;;4.50;;
18360;SDS011;9308;48.550;9.108;2023-05-29T12:32:35;7.43;;;5.03;;
18360;SDS011;9308;48.550;9.108;2023-05-29T12:35:09;5.60;;;5.10;;
18360;SDS011;9308;48.550;9.108;2023-05-29T12:37:45;4.70;;;4.30;;
18360;SDS011;9308;48.550;9.108;2023-05-29T12:40:19;5.23;;;4.77;;
18360;SDS011;9308;48.550;9.108;2023-05-29T12:42:47;4.87;;;4.37;;
18360;SDS011;9308;48.550;9.108;2023-05-29T12:45:14;5.40;;;4.80;;
18360;SDS011;9308;48.550;9.108;2023-05-29T12:47:46;6.00;;;4.47;;
18360;SDS011;9308;48.550;9.108;2023-05-29T12:50:24;4.20;;;3.90;;
18360;SDS011;9308;48.550;9.108;2023-05-29T12:52:58;4.97;;;4.57;;
18360;SDS011;9308;48.550;9.108;2023-05-29T12:55:28;5.77;;;4.53;;
18360;SDS011;9308;48.550;9.108;2023-05-29T12:57:54;5.03;;;4.60;;
18360;SDS011;9308;48.550;9.108;2023-05-29T13:00:20;5.67;;;4.80;;
18360;SDS011;9308;48.550;9.108;2023-05-29T13:02:49;4.13;;;3.70;;
18360;SDS011;9308;48.550;9.108;2023-05-29T13:05:15;5.13;;;4.20;;
18360;SDS011;9308;48.550;9.108;2023-05-29T13:07:43;4.60;;;4.20;;
18360;SDS011;9308;48.550;9.108;2023-05-29T13:10:11;4.67;;;4.10;;
18360;SDS011;9308;48.550;9.108;2023-05-29T13:12:36;4.97;;;4.47;;
18360;SDS011;9308;48.550;9.108;2023-05-29T13:15:02;4.63;;;4.00;;
18360;SDS011;9308;48.550;9.108;2023-05-29T13:17:27;6.43;;;4.03;;
18360;SDS011;9308;48.550;9.108;2023-05-29T13:19:53;4.23;;;3.83;;
18360;SDS011;9308;48.550;9.108;2023-05-29T13:22:18;4.83;;;4.33;;
18360;SDS011;9308;48.550;9.108;2023-05-29T13:24:44;5.50;;;5.00;;
18360;SDS011;9308;48.550;9.108;2023-05-29T13:27:10;5.27;;;3.97;;
18360;SDS011;9308;48.550;9.108;2023-05-29T13:29:39;4.70;;;4.30;;
18360;SDS011;9308;48.550;9.108;2023-05-29T13:32:06;5.83;;;4.40;;
18360;SDS011;9308;48.550;9.108;2023-05-29T13:34:32;4.97;;;4.53;;
18360;SDS011;9308;48.550;9.108;2023-05-29T13:36:57;5.70;;;4.53;;
18360;SDS011;9308;48.550;9.108;2023-05-29T13:39:23;4.80;;;4.40;;
18360;SDS011;9308;48.550;9.108;2023-05-29T13:41:50;6.57;;;5.30;;
18360;SDS011;9308;48.550;9.108;2023-05-29T13:44:15;4.40;;;4.10;;
18360;SDS011;9308;48.550;9.108;2023-05-29T13:46:40;5.20;;;3.90;;
18360;SDS011;9308;48.550;9.108;2023-05-29T13:49:06;4.83;;;4.20;;
18360;SDS011;9308;48.550;9.108;2023-05-29T13:51:32;5.40;;;4.07;;
18360;SDS011;9308;48.550;9.108;2023-05-29T13:53:58;4.47;;;4.07;;
18360;SDS011;9308;48.550;9.108;2023-05-29T13:56:23;7.33;;;5.43;;
18360;SDS011;9308;48.550;9.108;2023-05-29T13:58:52;9.83;;;4.33;;
18360;SDS011;9308;48.550;9.108;2023-05-29T14:01:18;4.80;;;4.37;;
18360;SDS011;9308;48.550;9.108;2023-05-29T14:03:44;5.27;;;4.60;;
18360;SDS011;9308;48.550;9.108;2023-05-29T14:06:10;4.67;;;4.20;;
18360;SDS011;9308;48.550;9.108;2023-05-29T14:08:36;4.50;;;4.10;;
18360;SDS011;9308;48.550;9.108;2023-05-29T14:11:02;5.10;;;4.60;;
18360;SDS011;9308;48.550;9.108;2023-05-29T14:13:28;4.70;;;4.30;;
18360;SDS011;9308;48.550;9.108;2023-05-29T14:15:53;6.10;;;4.67;;
18360;SDS011;9308;48.550;9.108;2023-05-29T14:18:21;5.93;;;4.60;;
18360;SDS011;9308;48.550;9.108;2023-05-29T14:20:46;7.07;;;4.93;;
18360;SDS011;9308;48.550;9.108;2023-05-29T14:23:13;4.97;;;4.50;;
18360;SDS011;9308;48.550;9.108;2023-05-29T14:25:41;4.60;;;4.20;;
18360;SDS011;9308;48.550;9.108;2023-05-29T14:28:07;5.30;;;4.80;;
18360;SDS011;9308;48.550;9.108;2023-05-29T14:30:32;4.57;;;4.17;;
18360;SDS011;9308;48.550;9.108;2023-05-29T14:32:58;5.40;;;4.40;;
18360;SDS011;9308;48.550;9.108;2023-05-29T14:35:25;4.37;;;3.97;;
18360;SDS011;9308;48.550;9.108;2023-05-29T14:37:50;5.80;;;4.50;;
18360;SDS011;9308;48.550;9.108;2023-05-29T14:40:16;4.90;;;4.50;;
18360;SDS011;9308;48.550;9.108;2023-05-29T14:42:42;5.97;;;4.80;;
18360;SDS011;9308;48.550;9.108;2023-05-29T14:45:07;5.33;;;4.90;;
18360;SDS011;9308;48.550;9.108;2023-05-29T14:47:34;4.57;;;4.17;;
18360;SDS011;9308;48.550;9.108;2023-05-29T14:50:00;7.47;;;4.63;;
18360;SDS011;9308;48.550;9.108;2023-05-29T14:52:26;4.50;;;4.10;;
18360;SDS011;9308;48.550;9.108;2023-05-29T14:54:51;5.17;;;4.67;;
18360;SDS011;9308;48.550;9.108;2023-05-29T14:57:17;5.13;;;4.53;;
18360;SDS011;9308;48.550;9.108;2023-05-29T14:59:42;4.50;;;4.10;;
18360;SDS011;9308;48.550;9.108;2023-05-29T15:02:07;4.50;;;4.10;;
18360;SDS011;9308;48.550;9.108;2023-05-29T15:04:34;5.33;;;4.87;;
18360;SDS011;9308;48.550;9.108;2023-05-29T15:07:00;4.43;;;4.00;;
18360;SDS011;9308;48.550;9.108;2023-05-29T15:09:26;5.70;;;4.83;;
18360;SDS011;9308;48.550;9.108;2023-05-29T15:11:51;7.07;;;5.60;;
18360;SDS011;9308;48.550;9.108;2023-05-29T15:14:17;4.77;;;3.93;;
18360;SDS011;9308;48.550;9.108;2023-05-29T15:16:42;5.37;;;4.40;;
18360;SDS011;9308;48.550;9.108;2023-05-29T15:19:08;4.60;;;4.07;;
18360;SDS011;9308;48.550;9.108;2023-05-29T15:21:33;5.47;;;5.00;;